createdAt,value
2018-10-01T00:01:10.420Z,29.55
2018-10-01T00:03:41.111Z,26.50
2018-10-01T00:06:12.401Z,25.33
2018-10-01T00:08:42.955Z,24.17
2018-10-01T00:11:13.649Z,24.57
2018-10-01T00:13:44.506Z,27.25
2018-10-01T00:16:15.377Z,22.90
2018-10-01T00:18:45.873Z,23.30
2018-10-01T00:21:21.417Z,24.13
2018-10-01T00:23:52.207Z,23.33
2018-10-01T00:26:22.905Z,23.47
2018-10-01T00:28:53.695Z,22.80
2018-10-01T00:31:24.494Z,24.23
2018-10-01T00:33:55.045Z,22.70
2018-10-01T00:36:25.704Z,22.30
2018-10-01T00:38:56.354Z,22.57
2018-10-01T00:41:27.069Z,26.37
2018-10-01T00:43:57.636Z,23.17
2018-10-01T00:46:28.321Z,23.87
2018-10-01T00:48:58.882Z,22.13
2018-10-01T00:51:29.534Z,22.23
2018-10-01T00:54:00.263Z,20.87
2018-10-01T00:56:31.020Z,21.93
2018-10-01T00:59:01.703Z,22.67
2018-10-01T01:01:32.502Z,26.60
2018-10-01T01:04:03.267Z,24.55
2018-10-01T01:06:33.971Z,21.50
2018-10-01T01:09:05.326Z,22.53
2018-10-01T01:11:36.067Z,22.57
2018-10-01T01:14:06.648Z,20.93
2018-10-01T01:16:37.324Z,22.33
2018-10-01T01:19:07.883Z,22.33
2018-10-01T01:21:38.638Z,21.53
2018-10-01T01:24:09.288Z,22.13
2018-10-01T01:26:40.036Z,20.63
2018-10-01T01:29:10.775Z,20.23
2018-10-01T01:31:41.476Z,25.23
2018-10-01T01:34:12.419Z,22.50
2018-10-01T01:36:42.987Z,24.77
2018-10-01T01:39:13.675Z,22.20
2018-10-01T01:41:44.291Z,20.83
2018-10-01T01:44:14.960Z,23.37
2018-10-01T01:46:45.547Z,22.13
2018-10-01T01:49:16.248Z,23.10
2018-10-01T01:51:46.964Z,23.10
2018-10-01T01:54:17.533Z,24.37
2018-10-01T01:56:48.071Z,23.77
2018-10-01T01:59:18.774Z,23.30
2018-10-01T02:01:49.436Z,23.90
2018-10-01T02:04:20.336Z,23.73
2018-10-01T02:06:51.050Z,22.70
2018-10-01T02:09:21.778Z,22.23
2018-10-01T02:11:52.396Z,22.37
2018-10-01T02:14:23.278Z,24.65
2018-10-01T02:16:54.194Z,20.83
2018-10-01T02:19:24.851Z,19.87
2018-10-01T02:21:55.717Z,18.60
2018-10-01T02:24:26.398Z,21.60
2018-10-01T02:26:57.010Z,20.50
2018-10-01T02:29:28.050Z,19.87
2018-10-01T02:31:59.092Z,21.87
2018-10-01T02:34:29.794Z,22.20
2018-10-01T02:37:00.366Z,23.60
2018-10-01T02:39:31.012Z,23.83
2018-10-01T02:42:01.769Z,23.70
2018-10-01T02:44:32.297Z,25.50
2018-10-01T02:47:03.020Z,25.80
2018-10-01T02:49:33.746Z,26.60
2018-10-01T02:52:09.393Z,27.83
2018-10-01T02:54:40.145Z,27.73
2018-10-01T02:57:10.863Z,27.97
2018-10-01T02:59:41.517Z,26.63
2018-10-01T03:02:12.234Z,25.57
2018-10-01T03:04:43.032Z,28.03
2018-10-01T03:07:13.889Z,26.87
2018-10-01T03:09:44.807Z,27.23
2018-10-01T03:12:15.562Z,27.93
2018-10-01T03:14:46.449Z,28.93
2018-10-01T03:17:17.479Z,30.70
2018-10-01T03:19:48.220Z,31.07
2018-10-01T03:22:18.878Z,37.13
2018-10-01T03:24:49.552Z,36.90
2018-10-01T03:27:20.181Z,32.90
2018-10-01T03:29:50.900Z,33.60
2018-10-01T03:32:21.693Z,29.17
2018-10-01T03:34:52.630Z,28.03
2018-10-01T03:37:23.477Z,33.20
2018-10-01T03:39:54.444Z,29.07
2018-10-01T03:42:25.004Z,32.08
2018-10-01T03:44:55.967Z,26.97
2018-10-01T03:47:26.590Z,25.40
2018-10-01T03:49:57.284Z,25.60
2018-10-01T03:52:27.927Z,25.93
2018-10-01T03:54:58.608Z,24.20
2018-10-01T03:57:29.567Z,23.43
2018-10-01T04:00:00.485Z,24.10
2018-10-01T04:02:31.264Z,23.23
2018-10-01T04:05:01.803Z,22.60
2018-10-01T04:07:32.380Z,21.60
2018-10-01T04:10:03.044Z,19.93
2018-10-01T04:12:33.739Z,20.17
2018-10-01T04:15:04.334Z,20.50
2018-10-01T04:17:35.033Z,21.03
2018-10-01T04:20:06.347Z,22.57
2018-10-01T04:22:38.528Z,24.75
2018-10-01T04:25:10.863Z,22.90
2018-10-01T04:27:41.610Z,22.20
2018-10-01T04:30:13.389Z,21.10
2018-10-01T04:32:44.584Z,19.97
2018-10-01T04:35:15.372Z,17.90
2018-10-01T04:37:46.060Z,18.23
2018-10-01T04:40:17.066Z,18.97
2018-10-01T04:42:47.779Z,19.77
2018-10-01T04:45:18.449Z,19.67
2018-10-01T04:47:49.198Z,19.97
2018-10-01T04:50:20.280Z,20.90
2018-10-01T04:52:50.972Z,18.97
2018-10-01T04:55:21.915Z,20.48
2018-10-01T04:57:53.344Z,21.83
2018-10-01T05:00:23.893Z,23.47
2018-10-01T05:02:54.567Z,23.00
2018-10-01T05:05:25.686Z,23.17
2018-10-01T05:07:56.639Z,22.03
2018-10-01T05:10:27.328Z,22.80
2018-10-01T05:18:59.094Z,24.67
2018-10-01T05:21:30.006Z,21.30
2018-10-01T05:24:00.732Z,20.20
2018-10-01T05:26:31.726Z,18.73
2018-10-01T05:29:02.726Z,21.93
2018-10-01T05:31:33.706Z,18.87
2018-10-01T05:34:04.566Z,18.33
2018-10-01T05:36:35.486Z,17.10
2018-10-01T05:39:09.202Z,19.00
2018-10-01T05:41:39.833Z,18.10
2018-10-01T05:44:10.703Z,17.97
2018-10-01T05:46:41.559Z,17.40
2018-10-01T05:49:12.408Z,18.33
2018-10-01T05:51:43.277Z,19.57
2018-10-01T05:54:14.426Z,20.30
2018-10-01T05:56:45.088Z,20.70
2018-10-01T05:59:15.957Z,20.17
2018-10-01T06:01:46.812Z,18.60
2018-10-01T06:04:17.679Z,18.83
2018-10-01T06:06:48.280Z,17.10
2018-10-01T06:09:18.952Z,18.13
2018-10-01T06:11:49.801Z,18.40
2018-10-01T06:14:20.531Z,17.40
2018-10-01T06:16:51.331Z,19.73
2018-10-01T06:19:22.017Z,18.63
2018-10-01T06:21:52.628Z,18.83
2018-10-01T06:24:23.243Z,20.50
2018-10-01T06:26:53.850Z,20.50
2018-10-01T06:29:24.592Z,19.83
2018-10-01T06:31:55.164Z,22.37
2018-10-01T06:34:26.028Z,21.27
2018-10-01T06:36:56.659Z,21.42
2018-10-01T06:39:27.508Z,20.63
2018-10-01T06:41:58.420Z,20.77
2018-10-01T06:44:29.550Z,20.20
2018-10-01T06:47:00.388Z,20.60
2018-10-01T06:49:30.978Z,21.77
2018-10-01T06:52:01.766Z,22.20
2018-10-01T06:54:36.283Z,24.00
2018-10-01T06:57:09.253Z,31.97
2018-10-01T06:59:56.303Z,27.60
2018-10-01T07:02:30.164Z,24.70
2018-10-01T07:05:02.059Z,23.33
2018-10-01T07:07:33.007Z,24.00
2018-10-01T07:10:04.157Z,24.37
2018-10-01T07:12:35.452Z,23.20
2018-10-01T07:15:07.113Z,23.73
2018-10-01T07:17:39.759Z,23.50
2018-10-01T07:20:34.142Z,21.93
2018-10-01T07:23:04.983Z,21.00
2018-10-01T07:25:35.742Z,24.63
2018-10-01T07:28:07.224Z,23.53
2018-10-01T07:30:38.258Z,21.97
2018-10-01T07:33:16.961Z,22.60
2018-10-01T07:35:51.579Z,23.20
2018-10-01T07:38:23.148Z,21.90
2018-10-01T07:40:55.022Z,21.47
2018-10-01T07:43:25.579Z,21.43
2018-10-01T07:45:56.472Z,21.93
2018-10-01T07:48:28.139Z,22.30
2018-10-01T07:50:59.276Z,21.33
2018-10-01T07:53:30.086Z,21.93
2018-10-01T07:56:00.854Z,23.87
2018-10-01T07:58:31.489Z,22.77
2018-10-01T08:01:02.376Z,22.00
2018-10-01T08:03:33.383Z,20.73
2018-10-01T08:06:04.096Z,21.00
2018-10-01T08:08:35.365Z,20.80
2018-10-01T08:11:06.029Z,19.97
2018-10-01T08:13:36.642Z,20.50
2018-10-01T08:16:07.597Z,20.93
2018-10-01T08:18:38.664Z,20.70
2018-10-01T08:21:09.629Z,21.10
2018-10-01T08:23:40.388Z,20.93
2018-10-01T08:26:11.340Z,18.10
2018-10-01T08:28:41.984Z,17.17
2018-10-01T08:31:13.142Z,15.97
2018-10-01T08:33:43.817Z,15.03
2018-10-01T08:36:14.690Z,15.47
2018-10-01T08:38:47.148Z,16.17
2018-10-01T08:41:17.741Z,16.63
2018-10-01T08:43:48.372Z,17.63
2018-10-01T08:46:19.047Z,16.50
2018-10-01T08:48:57.572Z,16.50
2018-10-01T08:51:33.821Z,16.60
2018-10-01T08:54:39.499Z,16.17
2018-10-01T08:57:10.140Z,16.60
2018-10-01T08:59:40.701Z,16.37
2018-10-01T09:02:11.388Z,15.63
2018-10-01T09:04:42.020Z,16.07
2018-10-01T09:07:12.799Z,16.87
2018-10-01T09:09:43.945Z,18.33
2018-10-01T09:12:14.612Z,17.40
2018-10-01T09:14:45.754Z,16.67
2018-10-01T09:17:16.426Z,16.00
2018-10-01T09:19:47.410Z,14.93
2018-10-01T09:22:18.394Z,15.80
2018-10-01T09:24:49.253Z,17.33
2018-10-01T09:27:19.861Z,17.00
2018-10-01T09:29:50.869Z,18.43
2018-10-01T09:32:21.508Z,18.57
2018-10-01T09:34:52.239Z,17.80
2018-10-01T09:37:22.854Z,17.27
2018-10-01T09:39:56.671Z,16.07
2018-10-01T09:42:27.421Z,16.47
2018-10-01T09:44:58.259Z,17.50
2018-10-01T09:47:29.435Z,17.00
2018-10-01T09:50:00.965Z,16.60
2018-10-01T09:52:31.910Z,15.73
2018-10-01T09:55:02.907Z,15.00
2018-10-01T09:57:33.580Z,15.73
2018-10-01T10:00:04.320Z,15.83
2018-10-01T10:02:35.268Z,14.97
2018-10-01T10:05:06.246Z,15.40
2018-10-01T10:07:38.191Z,16.07
2018-10-01T10:10:09.343Z,16.20
2018-10-01T10:12:40.069Z,17.27
2018-10-01T10:15:10.648Z,16.00
2018-10-01T10:17:42.136Z,15.10
2018-10-01T10:20:12.985Z,15.03
2018-10-01T10:22:44.177Z,14.43
2018-10-01T10:25:16.327Z,16.07
2018-10-01T10:27:47.263Z,20.80
2018-10-01T10:30:18.133Z,13.77
2018-10-01T10:32:48.905Z,16.33
2018-10-01T10:35:19.616Z,15.67
2018-10-01T10:37:50.932Z,15.20
2018-10-01T10:40:21.904Z,14.93
2018-10-01T10:42:52.878Z,15.37
2018-10-01T10:45:23.483Z,15.60
2018-10-01T10:47:54.336Z,15.47
2018-10-01T10:50:25.131Z,13.27
2018-10-01T10:52:55.773Z,10.47
2018-10-01T10:55:26.415Z,10.57
2018-10-01T10:57:57.308Z,9.97
2018-10-01T11:00:28.310Z,10.70
2018-10-01T11:02:59.017Z,11.77
2018-10-01T11:05:29.735Z,9.97
2018-10-01T11:08:00.383Z,10.63
2018-10-01T11:10:31.140Z,10.93
2018-10-01T11:13:02.149Z,11.20
2018-10-01T11:15:33.508Z,10.20
2018-10-01T11:18:04.361Z,11.63
2018-10-01T11:20:35.146Z,13.40
2018-10-01T11:23:05.921Z,21.63
2018-10-01T11:25:36.686Z,17.80
2018-10-01T11:28:07.584Z,15.70
2018-10-01T11:30:38.211Z,15.77
2018-10-01T11:33:08.996Z,16.13
2018-10-01T11:35:39.618Z,15.43
2018-10-01T11:38:10.479Z,15.73
2018-10-01T11:40:41.314Z,17.97
2018-10-01T11:43:11.957Z,17.40
2018-10-01T11:45:42.707Z,17.13
2018-10-01T11:48:13.646Z,18.57
2018-10-01T11:50:45.957Z,15.70
2018-10-01T11:53:18.528Z,16.10
2018-10-01T11:55:51.503Z,14.83
2018-10-01T11:58:22.395Z,17.87
2018-10-01T12:00:54.704Z,8.80
2018-10-01T12:03:25.494Z,7.60
2018-10-01T12:05:56.342Z,5.97
2018-10-01T12:08:27.079Z,6.53
2018-10-01T12:10:57.692Z,7.63
2018-10-01T12:13:28.470Z,9.80
2018-10-01T12:15:59.448Z,9.90
2018-10-01T12:18:30.006Z,9.20
2018-10-01T12:21:00.875Z,8.97
2018-10-01T12:23:31.834Z,7.87
2018-10-01T12:26:02.870Z,8.83
2018-10-01T12:28:33.595Z,6.10
2018-10-01T12:31:04.308Z,7.13
2018-10-01T12:33:35.122Z,8.23
2018-10-01T12:36:12.588Z,8.77
2018-10-01T12:38:43.355Z,8.50
2018-10-01T12:41:14.059Z,6.30
2018-10-01T12:43:44.840Z,6.40
2018-10-01T12:46:15.556Z,6.90
2018-10-01T12:48:46.214Z,7.10
2018-10-01T12:51:17.077Z,6.73
2018-10-01T12:53:47.820Z,6.93
2018-10-01T12:56:18.440Z,6.40
2018-10-01T12:58:49.181Z,6.67
2018-10-01T13:01:20.021Z,5.97
2018-10-01T13:03:50.828Z,4.93
2018-10-01T13:06:21.724Z,4.67
2018-10-01T13:08:52.671Z,3.43
2018-10-01T13:11:23.486Z,3.60
2018-10-01T13:13:54.395Z,2.93
2018-10-01T13:16:25.099Z,3.10
2018-10-01T13:18:57.653Z,3.23
2018-10-01T13:21:28.406Z,3.27
2018-10-01T13:23:59.233Z,2.83
2018-10-01T13:26:30.356Z,3.17
2018-10-01T13:29:01.308Z,3.17
2018-10-01T13:31:32.145Z,3.10
2018-10-01T13:34:03.149Z,3.20
2018-10-01T13:36:43.566Z,3.47
2018-10-01T13:39:18.281Z,3.77
2018-10-01T13:41:53.069Z,3.23
2018-10-01T13:44:23.839Z,5.53
2018-10-01T13:46:54.867Z,5.80
2018-10-01T13:49:26.097Z,5.60
2018-10-01T13:51:58.959Z,4.40
2018-10-01T13:54:31.580Z,4.77
2018-10-01T13:57:02.801Z,4.57
2018-10-01T13:59:42.850Z,4.83
2018-10-01T14:02:15.315Z,4.77
2018-10-01T14:04:46.090Z,4.10
2018-10-01T14:07:17.024Z,4.70
2018-10-01T14:09:47.689Z,3.57
2018-10-01T14:12:18.554Z,4.00
2018-10-01T14:14:49.342Z,3.57
2018-10-01T14:17:19.947Z,3.67
2018-10-01T14:19:50.877Z,3.40
2018-10-01T14:22:21.827Z,3.60
2018-10-01T14:24:52.663Z,3.57
2018-10-01T14:27:23.451Z,4.00
2018-10-01T14:29:54.093Z,3.93
2018-10-01T14:32:28.172Z,4.00
2018-10-01T14:34:59.818Z,4.33
2018-10-01T14:37:31.735Z,4.30
2018-10-01T14:40:02.398Z,5.47
2018-10-01T14:42:33.199Z,7.70
2018-10-01T14:45:03.775Z,5.83
2018-10-01T14:47:34.508Z,6.25
2018-10-01T14:50:05.711Z,7.47
2018-10-01T14:52:36.830Z,9.07
2018-10-01T14:55:08.387Z,9.77
2018-10-01T14:57:39.335Z,9.93
2018-10-01T15:00:10.247Z,9.77
2018-10-01T15:02:40.799Z,8.77
2018-10-01T15:05:11.404Z,10.80
2018-10-01T15:07:42.193Z,9.73
2018-10-01T15:10:12.852Z,8.77
2018-10-01T15:12:43.684Z,7.17
2018-10-01T15:15:14.305Z,6.77
2018-10-01T15:17:45.061Z,6.57
2018-10-01T15:20:15.987Z,7.00
2018-10-01T15:22:46.779Z,7.83
2018-10-01T15:25:17.637Z,7.03
2018-10-01T15:27:48.364Z,7.87
2018-10-01T15:30:19.061Z,7.47
2018-10-01T15:32:49.675Z,8.50
2018-10-01T15:35:20.487Z,9.17
2018-10-01T15:37:51.380Z,10.20
2018-10-01T15:40:22.286Z,11.17
2018-10-01T15:42:53.626Z,10.50
2018-10-01T15:45:24.760Z,8.40
2018-10-01T15:47:55.678Z,8.30
2018-10-01T15:50:26.425Z,7.60
2018-10-01T15:52:57.545Z,7.03
2018-10-01T15:55:28.527Z,6.60
2018-10-01T15:57:59.889Z,6.00
2018-10-01T16:00:30.613Z,6.10
2018-10-01T16:03:01.467Z,5.67
2018-10-01T16:05:33.724Z,4.93
2018-10-01T16:08:12.756Z,5.23
2018-10-01T16:10:45.431Z,5.00
2018-10-01T16:13:17.292Z,6.07
2018-10-01T16:15:50.637Z,7.20
2018-10-01T16:18:24.625Z,9.70
2018-10-01T16:20:56.165Z,13.13
2018-10-01T16:23:30.169Z,10.60
2018-10-01T16:26:02.124Z,8.30
2018-10-01T16:28:32.923Z,7.20
2018-10-01T16:31:05.650Z,8.07
2018-10-01T16:33:38.427Z,6.80
2018-10-01T16:36:11.469Z,6.20
2018-10-01T16:38:42.554Z,5.20
2018-10-01T16:41:15.505Z,4.67
2018-10-01T16:43:46.314Z,4.67
2018-10-01T16:46:17.366Z,4.80
2018-10-01T16:48:48.410Z,4.60
2018-10-01T16:51:20.371Z,4.60
2018-10-01T16:53:51.367Z,4.83
2018-10-01T16:56:22.277Z,4.80
2018-10-01T16:58:53.409Z,4.90
2018-10-01T17:01:24.352Z,5.43
2018-10-01T17:03:55.289Z,5.30
2018-10-01T17:06:31.523Z,6.20
2018-10-01T17:09:02.753Z,7.50
2018-10-01T17:11:33.625Z,8.80
2018-10-01T17:14:04.681Z,7.90
2018-10-01T17:16:35.390Z,9.23
2018-10-01T17:19:06.120Z,8.37
2018-10-01T17:21:36.861Z,9.27
2018-10-01T17:24:08.185Z,10.70
2018-10-01T17:26:39.091Z,11.30
2018-10-01T17:29:11.725Z,11.00
2018-10-01T17:31:43.304Z,10.60
2018-10-01T17:34:14.092Z,10.75
2018-10-01T17:36:44.964Z,9.77
2018-10-01T17:39:15.805Z,10.27
2018-10-01T17:41:46.708Z,10.83
2018-10-01T17:44:18.613Z,9.07
2018-10-01T17:46:51.420Z,9.43
2018-10-01T17:49:22.596Z,10.03
2018-10-01T17:51:53.500Z,13.40
2018-10-01T17:54:24.617Z,11.83
2018-10-01T17:56:55.438Z,9.27
2018-10-01T17:59:26.237Z,7.47
2018-10-01T18:01:57.256Z,7.17
2018-10-01T18:04:28.203Z,7.43
2018-10-01T18:06:59.217Z,7.53
2018-10-01T18:09:30.113Z,7.37
2018-10-01T18:12:00.998Z,7.63
2018-10-01T18:14:38.928Z,7.63
2018-10-01T18:17:12.438Z,7.73
2018-10-01T18:19:43.633Z,7.50
2018-10-01T18:22:14.628Z,7.27
2018-10-01T18:24:45.863Z,7.40
2018-10-01T18:27:17.054Z,7.33
2018-10-01T18:29:48.141Z,7.07
2018-10-01T18:32:19.915Z,6.70
2018-10-01T18:34:51.134Z,7.60
2018-10-01T18:37:23.022Z,7.80
2018-10-01T18:39:53.843Z,8.10
2018-10-01T18:42:25.671Z,9.57
2018-10-01T18:44:56.275Z,8.60
2018-10-01T18:47:27.019Z,8.00
2018-10-01T18:49:58.135Z,8.60
2018-10-01T18:52:32.190Z,9.30
2018-10-01T18:55:03.065Z,9.63
2018-10-01T18:57:35.859Z,8.33
2018-10-01T19:00:07.675Z,9.10
2018-10-01T19:02:40.116Z,8.13
2018-10-01T19:05:11.728Z,7.83
2018-10-01T19:07:42.414Z,8.00
2018-10-01T19:10:13.163Z,10.00
2018-10-01T19:12:44.068Z,11.80
2018-10-01T19:15:14.998Z,12.30
2018-10-01T19:17:45.664Z,11.60
2018-10-01T19:20:16.491Z,11.53
2018-10-01T19:22:47.543Z,12.20
2018-10-01T19:25:19.452Z,13.00
2018-10-01T19:27:50.162Z,13.03
2018-10-01T19:30:20.914Z,13.97
2018-10-01T19:32:51.565Z,14.93
2018-10-01T19:35:22.253Z,16.13
2018-10-01T19:37:52.876Z,15.33
2018-10-01T19:40:23.456Z,15.00
2018-10-01T19:42:54.167Z,12.33
2018-10-01T19:45:24.927Z,11.73
2018-10-01T19:47:55.800Z,12.53
2018-10-01T19:50:26.788Z,11.23
2018-10-01T19:52:57.532Z,10.97
2018-10-01T19:55:28.316Z,10.47
2018-10-01T19:57:58.987Z,11.00
2018-10-01T20:00:29.805Z,11.33
2018-10-01T20:03:00.706Z,10.73
2018-10-01T20:05:31.603Z,11.37
2018-10-01T20:08:02.301Z,11.50
2018-10-01T20:10:33.095Z,12.20
2018-10-01T20:13:03.872Z,12.57
2018-10-01T20:15:34.854Z,11.70
2018-10-01T20:18:05.485Z,12.30
2018-10-01T20:20:36.333Z,14.53
2018-10-01T20:23:07.048Z,13.67
2018-10-01T20:25:38.313Z,17.10
2018-10-01T20:28:09.103Z,15.03
2018-10-01T20:30:39.773Z,17.17
2018-10-01T20:33:10.347Z,15.33
2018-10-01T20:35:41.562Z,18.05
2018-10-01T20:38:12.442Z,17.47
2018-10-01T20:40:43.147Z,17.10
2018-10-01T20:43:14.096Z,17.03
2018-10-01T20:45:44.700Z,17.27
2018-10-01T20:48:15.660Z,17.43
2018-10-01T20:50:46.377Z,17.43
2018-10-01T20:53:17.189Z,16.80
2018-10-01T20:55:47.949Z,17.90
2018-10-01T20:58:18.655Z,16.87
2018-10-01T21:00:49.453Z,16.10
2018-10-01T21:03:20.292Z,15.90
2018-10-01T21:05:51.163Z,16.10
2018-10-01T21:08:22.028Z,15.75
2018-10-01T21:10:52.871Z,14.83
2018-10-01T21:13:23.786Z,14.73
2018-10-01T21:15:54.754Z,16.10
2018-10-01T21:18:25.436Z,14.93
2018-10-01T21:20:56.143Z,16.00
2018-10-01T21:23:26.859Z,14.37
2018-10-01T21:25:57.750Z,14.70
2018-10-01T21:28:28.445Z,14.57
2018-10-01T21:30:59.175Z,16.17
2018-10-01T21:33:30.045Z,17.07
2018-10-01T21:36:01.057Z,17.17
2018-10-01T21:38:31.928Z,17.40
2018-10-01T21:41:02.733Z,17.70
2018-10-01T21:43:33.704Z,19.00
2018-10-01T21:46:04.838Z,17.90
2018-10-01T21:48:35.525Z,20.17
2018-10-01T21:51:06.212Z,18.57
2018-10-01T21:53:36.838Z,18.00
2018-10-01T21:56:08.119Z,19.50
2018-10-01T21:58:39.048Z,17.67
2018-10-01T22:01:14.674Z,17.03
2018-10-01T22:03:45.411Z,16.30
2018-10-01T22:06:16.020Z,16.80
2018-10-01T22:08:46.853Z,16.73
2018-10-01T22:11:17.677Z,16.93
2018-10-01T22:13:48.238Z,16.63
2018-10-01T22:16:18.909Z,18.17
2018-10-01T22:18:49.600Z,17.20
2018-10-01T22:21:20.238Z,18.20
2018-10-01T22:23:50.917Z,19.40
2018-10-01T22:26:21.600Z,20.07
2018-10-01T22:28:52.299Z,20.83
2018-10-01T22:31:23.580Z,20.50
2018-10-01T22:33:54.336Z,20.20
2018-10-01T22:36:25.203Z,20.23
2018-10-01T22:38:56.246Z,19.70
2018-10-01T22:41:26.853Z,20.43
2018-10-01T22:43:57.573Z,20.07
2018-10-01T22:46:28.146Z,19.60
2018-10-01T22:48:59.362Z,18.90
2018-10-01T22:51:29.938Z,18.13
2018-10-01T22:54:00.672Z,18.00
2018-10-01T22:56:31.815Z,16.03
2018-10-01T22:59:02.458Z,16.30
2018-10-01T23:01:33.107Z,18.25
2018-10-01T23:04:03.737Z,15.43
2018-10-01T23:06:34.580Z,14.63
2018-10-01T23:09:06.178Z,13.90
2018-10-01T23:11:36.934Z,14.30
2018-10-01T23:14:07.693Z,13.87
2018-10-01T23:16:38.361Z,13.90
2018-10-01T23:19:09.026Z,14.37
2018-10-01T23:21:39.588Z,14.53
2018-10-01T23:24:10.243Z,14.13
2018-10-01T23:26:40.859Z,14.47
2018-10-01T23:29:11.666Z,14.33
2018-10-01T23:31:42.218Z,14.03
2018-10-01T23:34:12.753Z,14.97
2018-10-01T23:36:43.485Z,15.87
2018-10-01T23:39:14.145Z,15.17
2018-10-01T23:41:44.733Z,14.33
2018-10-01T23:44:15.353Z,14.87
2018-10-01T23:46:46.357Z,13.33
2018-10-01T23:49:17.065Z,14.60
2018-10-01T23:51:47.917Z,14.17
2018-10-01T23:54:18.695Z,13.43
2018-10-01T23:56:49.264Z,12.77
2018-10-01T23:59:19.999Z,12.33
